This is the latest recevied weather packets stored in our database for station/object F4WDE-10. If no packets are shown the sender has not sent any weather packets the latest 10 day(s).
| Time | Temp. | Humidity | Pressure | Rain* | Wind** | Luminosity | Snow |
|---|---|---|---|---|---|---|---|
| 1778106535 | 15.56° C | 61% | 956 hPa | - | - | - | - |
| 1778105634 | 15.56° C | 62% | 956 hPa | - | - | - | - |
| 1778104733 | 15.56° C | 64% | 956 hPa | - | - | - | - |
| 1778103832 | 15.56° C | 64% | 956 hPa | - | - | - | - |
| 1778102931 | 15.56° C | 64% | 956 hPa | - | - | - | - |
| 1778102030 | 15.56° C | 66% | 956 hPa | - | - | - | - |
| 1778101129 | 15.56° C | 66% | 956 hPa | - | - | - | - |
| 1778100227 | 15.56° C | 65% | 956 hPa | - | - | - | - |
| 1778099326 | 15.56° C | 64% | 956 hPa | - | - | - | - |
| 1778098425 | 15.56° C | 65% | 956 hPa | - | - | - | - |
| 1778097524 | 16.11° C | 63% | 955 hPa | - | - | - | - |
| 1778096623 | 16.11° C | 63% | 955 hPa | - | - | - | - |
| 1778095722 | 16.11° C | 67% | 955 hPa | - | - | - | - |
| 1778094821 | 16.11° C | 76% | 955 hPa | - | - | - | - |
| 1778093920 | 16.11° C | 75% | 955 hPa | - | - | - | - |
| 1778093019 | 16.11° C | 77% | 954 hPa | - | - | - | - |
| 1778092118 | 16.67° C | 74% | 954 hPa | - | - | - | - |
| 1778091216 | 16.67° C | 70% | 954 hPa | - | - | - | - |
| 1778090315 | 17.22° C | 69% | 954 hPa | - | - | - | - |
| 1778089414 | 17.78° C | 64% | 954 hPa | - | - | - | - |
| 1778088513 | 17.78° C | 62% | 954 hPa | - | - | - | - |
| 1778087612 | 18.33° C | 62% | 954 hPa | - | - | - | - |
| 1778086711 | 18.89° C | 58% | 954 hPa | - | - | - | - |
| 1778085810 | 29.44° C | 35% | 954 hPa | - | - | - | - |
| 1778084909 | 28.33° C | 38% | 954 hPa | - | - | - | - |
* Rain since midnight (hover to see other rain measurements)
** Current wind speed in m/s (hover to see current wind gust speed)